sensor_id;sensor_type;location;lat;lon;timestamp;P1;durP1;ratioP1;P2;durP2;ratioP2
47866;SDS011;33628;50.806;11.586;2022-07-06T00:01:03;2.40;;;1.20;;
47866;SDS011;33628;50.806;11.586;2022-07-06T00:03:29;4.30;;;1.27;;
47866;SDS011;33628;50.806;11.586;2022-07-06T00:05:56;2.83;;;1.02;;
47866;SDS011;33628;50.806;11.586;2022-07-06T00:08:23;4.32;;;1.52;;
47866;SDS011;33628;50.806;11.586;2022-07-06T00:10:49;5.63;;;1.50;;
47866;SDS011;33628;50.806;11.586;2022-07-06T00:13:16;3.10;;;1.52;;
47866;SDS011;33628;50.806;11.586;2022-07-06T00:15:42;5.53;;;1.50;;
47866;SDS011;33628;50.806;11.586;2022-07-06T00:18:08;2.72;;;1.27;;
47866;SDS011;33628;50.806;11.586;2022-07-06T00:20:34;5.57;;;1.45;;
47866;SDS011;33628;50.806;11.586;2022-07-06T00:23:00;1.67;;;1.00;;
47866;SDS011;33628;50.806;11.586;2022-07-06T00:25:28;3.50;;;1.48;;
47866;SDS011;33628;50.806;11.586;2022-07-06T00:27:55;4.82;;;1.27;;
47866;SDS011;33628;50.806;11.586;2022-07-06T00:30:21;3.30;;;1.63;;
47866;SDS011;33628;50.806;11.586;2022-07-06T00:32:47;5.57;;;1.60;;
47866;SDS011;33628;50.806;11.586;2022-07-06T00:35:14;3.58;;;1.73;;
47866;SDS011;33628;50.806;11.586;2022-07-06T00:37:40;5.18;;;1.55;;
47866;SDS011;33628;50.806;11.586;2022-07-06T00:40:07;7.28;;;1.77;;
47866;SDS011;33628;50.806;11.586;2022-07-06T00:42:40;1.85;;;1.15;;
47866;SDS011;33628;50.806;11.586;2022-07-06T00:45:07;2.75;;;1.50;;
47866;SDS011;33628;50.806;11.586;2022-07-06T00:47:33;2.67;;;1.55;;
47866;SDS011;33628;50.806;11.586;2022-07-06T00:50:00;4.18;;;1.90;;
47866;SDS011;33628;50.806;11.586;2022-07-06T00:52:44;4.07;;;1.80;;
47866;SDS011;33628;50.806;11.586;2022-07-06T00:55:11;1.75;;;1.35;;
47866;SDS011;33628;50.806;11.586;2022-07-06T00:57:38;2.08;;;1.00;;
47866;SDS011;33628;50.806;11.586;2022-07-06T01:00:07;1.90;;;1.15;;
47866;SDS011;33628;50.806;11.586;2022-07-06T01:02:34;4.03;;;1.40;;
47866;SDS011;33628;50.806;11.586;2022-07-06T01:05:01;3.85;;;1.10;;
47866;SDS011;33628;50.806;11.586;2022-07-06T01:07:29;5.32;;;1.20;;
47866;SDS011;33628;50.806;11.586;2022-07-06T01:09:55;1.52;;;0.80;;
47866;SDS011;33628;50.806;11.586;2022-07-06T01:12:22;2.78;;;0.88;;
47866;SDS011;33628;50.806;11.586;2022-07-06T01:14:50;1.67;;;0.70;;
47866;SDS011;33628;50.806;11.586;2022-07-06T01:17:16;3.15;;;0.90;;
47866;SDS011;33628;50.806;11.586;2022-07-06T01:19:43;2.97;;;1.10;;
47866;SDS011;33628;50.806;11.586;2022-07-06T01:22:10;1.98;;;0.93;;
47866;SDS011;33628;50.806;11.586;2022-07-06T01:24:37;1.23;;;0.88;;
47866;SDS011;33628;50.806;11.586;2022-07-06T01:27:04;1.30;;;0.90;;
47866;SDS011;33628;50.806;11.586;2022-07-06T01:29:31;1.35;;;0.68;;
47866;SDS011;33628;50.806;11.586;2022-07-06T01:31:58;2.38;;;0.77;;
47866;SDS011;33628;50.806;11.586;2022-07-06T01:34:25;3.72;;;1.00;;
47866;SDS011;33628;50.806;11.586;2022-07-06T01:36:51;1.33;;;1.00;;
47866;SDS011;33628;50.806;11.586;2022-07-06T01:39:19;2.20;;;1.00;;
47866;SDS011;33628;50.806;11.586;2022-07-06T01:41:46;2.70;;;1.02;;
47866;SDS011;33628;50.806;11.586;2022-07-06T01:44:12;3.78;;;1.27;;
47866;SDS011;33628;50.806;11.586;2022-07-06T01:46:38;3.78;;;1.52;;
47866;SDS011;33628;50.806;11.586;2022-07-06T01:49:07;1.83;;;1.30;;
47866;SDS011;33628;50.806;11.586;2022-07-06T01:51:33;5.07;;;1.17;;
47866;SDS011;33628;50.806;11.586;2022-07-06T01:53:59;3.80;;;1.63;;
47866;SDS011;33628;50.806;11.586;2022-07-06T01:56:29;2.92;;;1.80;;
47866;SDS011;33628;50.806;11.586;2022-07-06T01:58:59;2.55;;;1.33;;
47866;SDS011;33628;50.806;11.586;2022-07-06T02:01:25;6.53;;;1.45;;
47866;SDS011;33628;50.806;11.586;2022-07-06T02:06:17;3.45;;;1.30;;
47866;SDS011;33628;50.806;11.586;2022-07-06T02:08:46;2.65;;;1.20;;
47866;SDS011;33628;50.806;11.586;2022-07-06T02:11:13;2.15;;;1.30;;
47866;SDS011;33628;50.806;11.586;2022-07-06T02:13:41;2.95;;;0.90;;
47866;SDS011;33628;50.806;11.586;2022-07-06T02:16:10;6.60;;;1.30;;
47866;SDS011;33628;50.806;11.586;2022-07-06T02:18:36;2.13;;;0.95;;
47866;SDS011;33628;50.806;11.586;2022-07-06T02:21:03;3.17;;;1.10;;
47866;SDS011;33628;50.806;11.586;2022-07-06T02:23:29;3.15;;;0.90;;
47866;SDS011;33628;50.806;11.586;2022-07-06T02:25:56;4.25;;;1.52;;
47866;SDS011;33628;50.806;11.586;2022-07-06T02:28:24;3.17;;;1.65;;
47866;SDS011;33628;50.806;11.586;2022-07-06T02:30:52;3.30;;;1.40;;
47866;SDS011;33628;50.806;11.586;2022-07-06T02:33:18;6.30;;;1.50;;
47866;SDS011;33628;50.806;11.586;2022-07-06T02:35:45;2.60;;;1.40;;
47866;SDS011;33628;50.806;11.586;2022-07-06T02:38:12;4.78;;;1.40;;
47866;SDS011;33628;50.806;11.586;2022-07-06T02:40:38;4.57;;;1.60;;
47866;SDS011;33628;50.806;11.586;2022-07-06T02:43:05;4.68;;;1.75;;
47866;SDS011;33628;50.806;11.586;2022-07-06T02:45:33;5.95;;;1.80;;
47866;SDS011;33628;50.806;11.586;2022-07-06T02:48:01;1.85;;;1.58;;
47866;SDS011;33628;50.806;11.586;2022-07-06T02:50:28;3.97;;;1.40;;
47866;SDS011;33628;50.806;11.586;2022-07-06T02:52:55;4.18;;;1.60;;
47866;SDS011;33628;50.806;11.586;2022-07-06T02:55:21;3.55;;;2.08;;
47866;SDS011;33628;50.806;11.586;2022-07-06T02:57:49;2.92;;;1.85;;
47866;SDS011;33628;50.806;11.586;2022-07-06T03:00:16;1.85;;;1.60;;
47866;SDS011;33628;50.806;11.586;2022-07-06T03:02:43;3.38;;;2.30;;
47866;SDS011;33628;50.806;11.586;2022-07-06T03:05:12;5.75;;;1.70;;
47866;SDS011;33628;50.806;11.586;2022-07-06T03:07:38;5.05;;;2.30;;
47866;SDS011;33628;50.806;11.586;2022-07-06T03:10:05;6.07;;;2.33;;
47866;SDS011;33628;50.806;11.586;2022-07-06T03:12:32;4.05;;;2.53;;
47866;SDS011;33628;50.806;11.586;2022-07-06T03:14:59;6.75;;;3.33;;
47866;SDS011;33628;50.806;11.586;2022-07-06T03:17:27;7.70;;;3.00;;
47866;SDS011;33628;50.806;11.586;2022-07-06T03:19:54;4.50;;;3.58;;
47866;SDS011;33628;50.806;11.586;2022-07-06T03:22:23;3.58;;;3.28;;
47866;SDS011;33628;50.806;11.586;2022-07-06T03:24:49;4.30;;;3.65;;
47866;SDS011;33628;50.806;11.586;2022-07-06T03:27:16;3.45;;;2.55;;
47866;SDS011;33628;50.806;11.586;2022-07-06T03:29:42;4.90;;;3.28;;
47866;SDS011;33628;50.806;11.586;2022-07-06T03:32:09;2.50;;;1.85;;
47866;SDS011;33628;50.806;11.586;2022-07-06T03:34:36;5.55;;;1.52;;
47866;SDS011;33628;50.806;11.586;2022-07-06T03:37:03;5.22;;;1.80;;
47866;SDS011;33628;50.806;11.586;2022-07-06T03:39:31;5.22;;;1.45;;
47866;SDS011;33628;50.806;11.586;2022-07-06T03:41:59;1.95;;;1.55;;
47866;SDS011;33628;50.806;11.586;2022-07-06T03:44:26;8.00;;;1.90;;
47866;SDS011;33628;50.806;11.586;2022-07-06T03:46:52;2.22;;;1.50;;
47866;SDS011;33628;50.806;11.586;2022-07-06T03:49:22;3.85;;;1.63;;
47866;SDS011;33628;50.806;11.586;2022-07-06T03:51:53;3.40;;;1.80;;
47866;SDS011;33628;50.806;11.586;2022-07-06T03:54:21;4.03;;;1.77;;
47866;SDS011;33628;50.806;11.586;2022-07-06T03:56:49;3.47;;;1.80;;
47866;SDS011;33628;50.806;11.586;2022-07-06T03:59:16;6.47;;;1.92;;
47866;SDS011;33628;50.806;11.586;2022-07-06T04:01:42;6.97;;;1.63;;
47866;SDS011;33628;50.806;11.586;2022-07-06T04:04:12;4.40;;;1.63;;
47866;SDS011;33628;50.806;11.586;2022-07-06T04:06:42;2.47;;;1.65;;
47866;SDS011;33628;50.806;11.586;2022-07-06T04:09:09;6.88;;;1.92;;
47866;SDS011;33628;50.806;11.586;2022-07-06T04:11:36;2.58;;;1.83;;
47866;SDS011;33628;50.806;11.586;2022-07-06T04:14:06;2.22;;;1.63;;
47866;SDS011;33628;50.806;11.586;2022-07-06T04:16:32;5.00;;;2.38;;
47866;SDS011;33628;50.806;11.586;2022-07-06T04:18:59;6.10;;;2.20;;
47866;SDS011;33628;50.806;11.586;2022-07-06T04:21:25;7.65;;;1.90;;
47866;SDS011;33628;50.806;11.586;2022-07-06T04:23:52;8.20;;;2.20;;
47866;SDS011;33628;50.806;11.586;2022-07-06T04:26:19;5.50;;;2.10;;
47866;SDS011;33628;50.806;11.586;2022-07-06T04:28:46;4.88;;;1.70;;
47866;SDS011;33628;50.806;11.586;2022-07-06T04:31:14;7.43;;;1.55;;
47866;SDS011;33628;50.806;11.586;2022-07-06T04:33:43;9.20;;;1.92;;
47866;SDS011;33628;50.806;11.586;2022-07-06T04:36:10;6.88;;;2.08;;
47866;SDS011;33628;50.806;11.586;2022-07-06T04:38:41;4.50;;;1.60;;
47866;SDS011;33628;50.806;11.586;2022-07-06T04:41:09;6.95;;;2.08;;
47866;SDS011;33628;50.806;11.586;2022-07-06T04:43:35;4.53;;;1.83;;
47866;SDS011;33628;50.806;11.586;2022-07-06T04:46:02;5.82;;;1.70;;
47866;SDS011;33628;50.806;11.586;2022-07-06T04:48:35;3.15;;;1.85;;
47866;SDS011;33628;50.806;11.586;2022-07-06T04:51:05;4.90;;;1.80;;
47866;SDS011;33628;50.806;11.586;2022-07-06T04:53:31;3.50;;;1.70;;
47866;SDS011;33628;50.806;11.586;2022-07-06T04:55:58;3.15;;;1.80;;
47866;SDS011;33628;50.806;11.586;2022-07-06T04:58:26;2.65;;;1.48;;
47866;SDS011;33628;50.806;11.586;2022-07-06T05:00:52;3.35;;;1.95;;
47866;SDS011;33628;50.806;11.586;2022-07-06T05:03:19;8.27;;;2.40;;
47866;SDS011;33628;50.806;11.586;2022-07-06T05:05:47;8.75;;;1.92;;
47866;SDS011;33628;50.806;11.586;2022-07-06T05:08:14;5.97;;;2.17;;
47866;SDS011;33628;50.806;11.586;2022-07-06T05:10:41;5.47;;;1.73;;
47866;SDS011;33628;50.806;11.586;2022-07-06T05:13:07;4.38;;;1.80;;
47866;SDS011;33628;50.806;11.586;2022-07-06T05:15:34;7.60;;;2.25;;
47866;SDS011;33628;50.806;11.586;2022-07-06T05:18:00;5.07;;;1.90;;
47866;SDS011;33628;50.806;11.586;2022-07-06T05:20:27;7.20;;;2.00;;
47866;SDS011;33628;50.806;11.586;2022-07-06T05:22:55;4.47;;;2.00;;
47866;SDS011;33628;50.806;11.586;2022-07-06T05:25:26;6.45;;;2.17;;
47866;SDS011;33628;50.806;11.586;2022-07-06T05:27:54;7.90;;;1.80;;
47866;SDS011;33628;50.806;11.586;2022-07-06T05:30:20;3.60;;;1.85;;
47866;SDS011;33628;50.806;11.586;2022-07-06T05:32:46;6.63;;;2.22;;
47866;SDS011;33628;50.806;11.586;2022-07-06T05:35:13;7.72;;;1.98;;
47866;SDS011;33628;50.806;11.586;2022-07-06T05:37:39;6.13;;;2.00;;
47866;SDS011;33628;50.806;11.586;2022-07-06T05:40:08;6.78;;;2.00;;
47866;SDS011;33628;50.806;11.586;2022-07-06T05:42:34;4.32;;;1.80;;
47866;SDS011;33628;50.806;11.586;2022-07-06T05:45:01;7.57;;;2.20;;
47866;SDS011;33628;50.806;11.586;2022-07-06T05:47:30;11.80;;;1.70;;
47866;SDS011;33628;50.806;11.586;2022-07-06T05:50:16;3.13;;;1.77;;
47866;SDS011;33628;50.806;11.586;2022-07-06T05:52:55;7.43;;;1.70;;
47866;SDS011;33628;50.806;11.586;2022-07-06T05:55:23;3.58;;;1.85;;
47866;SDS011;33628;50.806;11.586;2022-07-06T05:57:50;7.03;;;1.63;;
47866;SDS011;33628;50.806;11.586;2022-07-06T06:00:20;5.35;;;1.40;;
47866;SDS011;33628;50.806;11.586;2022-07-06T06:02:51;5.20;;;1.70;;
47866;SDS011;33628;50.806;11.586;2022-07-06T06:05:19;3.20;;;1.50;;
47866;SDS011;33628;50.806;11.586;2022-07-06T06:07:47;6.65;;;1.50;;
47866;SDS011;33628;50.806;11.586;2022-07-06T06:10:18;3.70;;;1.30;;
47866;SDS011;33628;50.806;11.586;2022-07-06T06:12:50;6.18;;;1.40;;
47866;SDS011;33628;50.806;11.586;2022-07-06T06:15:16;6.53;;;1.27;;
47866;SDS011;33628;50.806;11.586;2022-07-06T06:17:43;7.60;;;1.58;;
47866;SDS011;33628;50.806;11.586;2022-07-06T06:20:10;2.60;;;1.25;;
47866;SDS011;33628;50.806;11.586;2022-07-06T06:22:46;2.45;;;1.00;;
47866;SDS011;33628;50.806;11.586;2022-07-06T06:25:13;6.45;;;1.10;;
47866;SDS011;33628;50.806;11.586;2022-07-06T06:27:40;5.57;;;1.20;;
47866;SDS011;33628;50.806;11.586;2022-07-06T06:30:08;4.40;;;1.00;;
47866;SDS011;33628;50.806;11.586;2022-07-06T06:32:35;4.25;;;1.17;;
47866;SDS011;33628;50.806;11.586;2022-07-06T06:35:01;5.00;;;1.55;;
47866;SDS011;33628;50.806;11.586;2022-07-06T06:37:28;3.05;;;0.95;;
47866;SDS011;33628;50.806;11.586;2022-07-06T06:39:55;6.95;;;1.20;;
47866;SDS011;33628;50.806;11.586;2022-07-06T06:42:21;6.57;;;1.20;;
47866;SDS011;33628;50.806;11.586;2022-07-06T06:44:50;3.47;;;1.38;;
47866;SDS011;33628;50.806;11.586;2022-07-06T06:47:17;4.80;;;1.02;;
47866;SDS011;33628;50.806;11.586;2022-07-06T06:49:45;5.85;;;1.17;;
47866;SDS011;33628;50.806;11.586;2022-07-06T06:52:12;6.25;;;0.90;;
47866;SDS011;33628;50.806;11.586;2022-07-06T06:54:39;5.68;;;0.93;;
47866;SDS011;33628;50.806;11.586;2022-07-06T06:57:05;5.30;;;1.00;;
47866;SDS011;33628;50.806;11.586;2022-07-06T06:59:32;5.32;;;0.95;;
47866;SDS011;33628;50.806;11.586;2022-07-06T07:01:58;6.85;;;1.15;;
47866;SDS011;33628;50.806;11.586;2022-07-06T07:04:26;5.05;;;2.47;;
47866;SDS011;33628;50.806;11.586;2022-07-06T07:06:54;5.65;;;1.08;;
47866;SDS011;33628;50.806;11.586;2022-07-06T07:09:21;3.90;;;1.08;;
47866;SDS011;33628;50.806;11.586;2022-07-06T07:11:50;7.10;;;1.55;;
47866;SDS011;33628;50.806;11.586;2022-07-06T07:14:16;6.55;;;1.10;;
47866;SDS011;33628;50.806;11.586;2022-07-06T07:16:42;2.45;;;0.98;;
47866;SDS011;33628;50.806;11.586;2022-07-06T07:19:09;5.18;;;0.98;;
47866;SDS011;33628;50.806;11.586;2022-07-06T07:21:36;4.43;;;1.05;;
47866;SDS011;33628;50.806;11.586;2022-07-06T07:24:03;4.28;;;1.10;;
47866;SDS011;33628;50.806;11.586;2022-07-06T07:26:30;5.18;;;1.20;;
47866;SDS011;33628;50.806;11.586;2022-07-06T07:28:56;4.93;;;1.13;;
47866;SDS011;33628;50.806;11.586;2022-07-06T07:31:22;3.33;;;1.10;;
47866;SDS011;33628;50.806;11.586;2022-07-06T07:33:49;6.50;;;1.10;;
47866;SDS011;33628;50.806;11.586;2022-07-06T07:36:16;9.70;;;1.30;;
47866;SDS011;33628;50.806;11.586;2022-07-06T07:38:44;6.90;;;1.42;;
47866;SDS011;33628;50.806;11.586;2022-07-06T07:41:10;4.93;;;1.48;;
47866;SDS011;33628;50.806;11.586;2022-07-06T07:43:39;4.20;;;1.33;;
47866;SDS011;33628;50.806;11.586;2022-07-06T07:46:05;6.60;;;1.17;;
47866;SDS011;33628;50.806;11.586;2022-07-06T07:48:32;5.60;;;1.48;;
47866;SDS011;33628;50.806;11.586;2022-07-06T07:50:58;5.22;;;1.15;;
47866;SDS011;33628;50.806;11.586;2022-07-06T07:53:25;3.20;;;1.35;;
47866;SDS011;33628;50.806;11.586;2022-07-06T07:55:53;2.47;;;0.80;;
47866;SDS011;33628;50.806;11.586;2022-07-06T07:58:19;4.72;;;1.25;;
47866;SDS011;33628;50.806;11.586;2022-07-06T08:00:46;5.05;;;1.30;;
47866;SDS011;33628;50.806;11.586;2022-07-06T08:03:12;7.25;;;1.25;;
47866;SDS011;33628;50.806;11.586;2022-07-06T08:05:39;4.97;;;0.93;;
47866;SDS011;33628;50.806;11.586;2022-07-06T08:08:05;5.82;;;1.20;;
47866;SDS011;33628;50.806;11.586;2022-07-06T08:10:31;3.70;;;1.30;;
47866;SDS011;33628;50.806;11.586;2022-07-06T08:12:59;2.42;;;1.00;;
47866;SDS011;33628;50.806;11.586;2022-07-06T08:15:25;2.70;;;0.85;;
47866;SDS011;33628;50.806;11.586;2022-07-06T08:17:52;2.70;;;0.98;;
47866;SDS011;33628;50.806;11.586;2022-07-06T08:20:18;6.00;;;1.42;;
47866;SDS011;33628;50.806;11.586;2022-07-06T08:22:44;3.20;;;1.00;;
47866;SDS011;33628;50.806;11.586;2022-07-06T08:25:11;11.40;;;1.23;;
47866;SDS011;33628;50.806;11.586;2022-07-06T08:27:37;4.55;;;1.65;;
47866;SDS011;33628;50.806;11.586;2022-07-06T08:30:06;4.85;;;1.13;;
47866;SDS011;33628;50.806;11.586;2022-07-06T08:32:33;4.05;;;1.20;;
47866;SDS011;33628;50.806;11.586;2022-07-06T08:35:02;6.78;;;1.30;;
47866;SDS011;33628;50.806;11.586;2022-07-06T08:37:29;5.07;;;1.30;;
47866;SDS011;33628;50.806;11.586;2022-07-06T08:39:55;2.53;;;1.23;;
47866;SDS011;33628;50.806;11.586;2022-07-06T08:42:22;6.32;;;1.25;;
47866;SDS011;33628;50.806;11.586;2022-07-06T08:44:49;3.53;;;1.10;;
47866;SDS011;33628;50.806;11.586;2022-07-06T08:47:17;4.30;;;1.10;;
47866;SDS011;33628;50.806;11.586;2022-07-06T08:49:45;7.10;;;1.27;;
47866;SDS011;33628;50.806;11.586;2022-07-06T08:52:12;4.20;;;0.95;;
47866;SDS011;33628;50.806;11.586;2022-07-06T08:54:39;4.47;;;1.20;;
47866;SDS011;33628;50.806;11.586;2022-07-06T08:57:06;7.15;;;1.40;;
47866;SDS011;33628;50.806;11.586;2022-07-06T08:59:33;2.35;;;1.50;;
47866;SDS011;33628;50.806;11.586;2022-07-06T09:01:59;5.28;;;1.45;;
47866;SDS011;33628;50.806;11.586;2022-07-06T09:04:27;9.68;;;1.63;;
47866;SDS011;33628;50.806;11.586;2022-07-06T09:06:54;5.82;;;1.85;;
47866;SDS011;33628;50.806;11.586;2022-07-06T09:09:21;2.75;;;0.98;;
47866;SDS011;33628;50.806;11.586;2022-07-06T09:11:48;4.40;;;1.25;;
47866;SDS011;33628;50.806;11.586;2022-07-06T09:14:15;5.22;;;1.25;;
47866;SDS011;33628;50.806;11.586;2022-07-06T09:16:41;7.60;;;2.08;;
47866;SDS011;33628;50.806;11.586;2022-07-06T09:19:09;9.45;;;5.07;;
47866;SDS011;33628;50.806;11.586;2022-07-06T09:21:37;6.57;;;1.42;;
47866;SDS011;33628;50.806;11.586;2022-07-06T09:24:06;4.38;;;1.27;;
47866;SDS011;33628;50.806;11.586;2022-07-06T09:26:33;4.80;;;1.15;;
47866;SDS011;33628;50.806;11.586;2022-07-06T09:28:59;4.20;;;1.13;;
47866;SDS011;33628;50.806;11.586;2022-07-06T09:31:26;6.10;;;1.20;;
47866;SDS011;33628;50.806;11.586;2022-07-06T09:33:53;3.78;;;1.25;;
47866;SDS011;33628;50.806;11.586;2022-07-06T09:36:29;3.80;;;1.20;;
47866;SDS011;33628;50.806;11.586;2022-07-06T09:39:14;3.83;;;1.00;;
47866;SDS011;33628;50.806;11.586;2022-07-06T09:41:44;3.58;;;0.90;;
47866;SDS011;33628;50.806;11.586;2022-07-06T09:44:11;4.63;;;1.00;;
47866;SDS011;33628;50.806;11.586;2022-07-06T09:46:40;4.22;;;0.90;;
47866;SDS011;33628;50.806;11.586;2022-07-06T09:49:07;6.30;;;1.00;;
47866;SDS011;33628;50.806;11.586;2022-07-06T09:51:35;3.20;;;1.15;;
47866;SDS011;33628;50.806;11.586;2022-07-06T09:54:05;4.60;;;1.35;;
47866;SDS011;33628;50.806;11.586;2022-07-06T09:56:39;4.70;;;1.20;;
47866;SDS011;33628;50.806;11.586;2022-07-06T09:59:09;4.10;;;1.20;;
47866;SDS011;33628;50.806;11.586;2022-07-06T10:01:35;7.57;;;1.58;;
47866;SDS011;33628;50.806;11.586;2022-07-06T10:04:02;4.22;;;1.27;;
47866;SDS011;33628;50.806;11.586;2022-07-06T10:06:29;3.63;;;1.52;;
47866;SDS011;33628;50.806;11.586;2022-07-06T10:08:55;5.50;;;2.13;;
47866;SDS011;33628;50.806;11.586;2022-07-06T10:11:25;3.05;;;1.42;;
47866;SDS011;33628;50.806;11.586;2022-07-06T10:13:52;5.18;;;1.65;;
47866;SDS011;33628;50.806;11.586;2022-07-06T10:16:20;3.95;;;1.85;;
47866;SDS011;33628;50.806;11.586;2022-07-06T10:18:48;3.88;;;1.80;;
47866;SDS011;33628;50.806;11.586;2022-07-06T10:21:15;3.83;;;1.80;;
47866;SDS011;33628;50.806;11.586;2022-07-06T10:23:41;4.22;;;1.85;;
47866;SDS011;33628;50.806;11.586;2022-07-06T10:26:07;4.70;;;1.50;;
47866;SDS011;33628;50.806;11.586;2022-07-06T10:28:35;3.42;;;1.25;;
47866;SDS011;33628;50.806;11.586;2022-07-06T10:31:02;4.82;;;1.65;;
47866;SDS011;33628;50.806;11.586;2022-07-06T10:33:28;4.20;;;1.27;;
47866;SDS011;33628;50.806;11.586;2022-07-06T10:35:54;3.22;;;1.23;;
47866;SDS011;33628;50.806;11.586;2022-07-06T10:38:22;2.38;;;0.95;;
47866;SDS011;33628;50.806;11.586;2022-07-06T10:40:58;5.00;;;0.88;;
47866;SDS011;33628;50.806;11.586;2022-07-06T10:43:31;2.83;;;1.05;;
47866;SDS011;33628;50.806;11.586;2022-07-06T10:46:01;3.38;;;0.88;;
47866;SDS011;33628;50.806;11.586;2022-07-06T10:48:33;3.45;;;0.77;;
47866;SDS011;33628;50.806;11.586;2022-07-06T10:51:00;3.10;;;0.70;;
47866;SDS011;33628;50.806;11.586;2022-07-06T10:53:30;5.22;;;0.90;;
47866;SDS011;33628;50.806;11.586;2022-07-06T10:56:02;4.60;;;0.93;;
47866;SDS011;33628;50.806;11.586;2022-07-06T11:01:19;4.13;;;0.80;;
47866;SDS011;33628;50.806;11.586;2022-07-06T11:03:46;4.22;;;0.80;;
47866;SDS011;33628;50.806;11.586;2022-07-06T11:06:14;2.63;;;0.70;;
47866;SDS011;33628;50.806;11.586;2022-07-06T11:08:45;5.65;;;1.00;;
47866;SDS011;33628;50.806;11.586;2022-07-06T11:11:12;7.10;;;0.80;;
47866;SDS011;33628;50.806;11.586;2022-07-06T11:13:43;3.05;;;0.90;;
47866;SDS011;33628;50.806;11.586;2022-07-06T11:16:14;7.95;;;1.10;;
47866;SDS011;33628;50.806;11.586;2022-07-06T11:18:45;1.63;;;0.70;;
47866;SDS011;33628;50.806;11.586;2022-07-06T11:21:16;3.53;;;0.60;;
47866;SDS011;33628;50.806;11.586;2022-07-06T11:23:47;2.40;;;0.90;;
47866;SDS011;33628;50.806;11.586;2022-07-06T11:26:13;3.92;;;0.82;;
47866;SDS011;33628;50.806;11.586;2022-07-06T11:28:40;1.80;;;0.80;;
47866;SDS011;33628;50.806;11.586;2022-07-06T11:31:07;6.40;;;0.80;;
47866;SDS011;33628;50.806;11.586;2022-07-06T11:33:33;5.43;;;0.50;;
47866;SDS011;33628;50.806;11.586;2022-07-06T11:36:16;6.40;;;0.90;;
47866;SDS011;33628;50.806;11.586;2022-07-06T11:38:43;1.75;;;0.65;;
47866;SDS011;33628;50.806;11.586;2022-07-06T11:41:11;4.20;;;1.02;;
47866;SDS011;33628;50.806;11.586;2022-07-06T11:43:40;5.10;;;0.80;;
47866;SDS011;33628;50.806;11.586;2022-07-06T11:46:19;2.75;;;0.77;;
47866;SDS011;33628;50.806;11.586;2022-07-06T11:48:46;4.45;;;0.52;;
47866;SDS011;33628;50.806;11.586;2022-07-06T11:51:13;1.70;;;0.88;;
47866;SDS011;33628;50.806;11.586;2022-07-06T11:53:42;3.70;;;0.80;;
47866;SDS011;33628;50.806;11.586;2022-07-06T11:56:10;5.40;;;0.80;;
47866;SDS011;33628;50.806;11.586;2022-07-06T11:58:36;3.60;;;0.70;;
47866;SDS011;33628;50.806;11.586;2022-07-06T12:01:05;1.92;;;0.50;;
47866;SDS011;33628;50.806;11.586;2022-07-06T12:03:31;3.40;;;0.88;;
47866;SDS011;33628;50.806;11.586;2022-07-06T12:06:00;2.55;;;0.70;;
47866;SDS011;33628;50.806;11.586;2022-07-06T12:08:27;4.07;;;0.60;;
47866;SDS011;33628;50.806;11.586;2022-07-06T12:10:54;3.15;;;0.68;;
47866;SDS011;33628;50.806;11.586;2022-07-06T12:13:22;2.40;;;0.80;;
47866;SDS011;33628;50.806;11.586;2022-07-06T12:15:49;6.05;;;1.15;;
47866;SDS011;33628;50.806;11.586;2022-07-06T12:18:18;3.70;;;0.73;;
47866;SDS011;33628;50.806;11.586;2022-07-06T12:21:01;6.35;;;0.70;;
47866;SDS011;33628;50.806;11.586;2022-07-06T12:23:37;2.53;;;0.57;;
47866;SDS011;33628;50.806;11.586;2022-07-06T12:26:04;3.65;;;0.80;;
47866;SDS011;33628;50.806;11.586;2022-07-06T12:28:30;2.40;;;0.65;;
47866;SDS011;33628;50.806;11.586;2022-07-06T12:30:56;2.03;;;0.52;;
47866;SDS011;33628;50.806;11.586;2022-07-06T12:33:22;3.67;;;0.60;;
47866;SDS011;33628;50.806;11.586;2022-07-06T12:35:49;7.78;;;0.80;;
47866;SDS011;33628;50.806;11.586;2022-07-06T12:38:20;3.70;;;0.80;;
47866;SDS011;33628;50.806;11.586;2022-07-06T12:40:49;3.60;;;0.50;;
47866;SDS011;33628;50.806;11.586;2022-07-06T12:48:53;2.60;;;0.70;;
47866;SDS011;33628;50.806;11.586;2022-07-06T12:51:19;3.50;;;0.68;;
47866;SDS011;33628;50.806;11.586;2022-07-06T12:53:46;5.68;;;0.60;;
47866;SDS011;33628;50.806;11.586;2022-07-06T12:56:13;3.13;;;0.68;;
47866;SDS011;33628;50.806;11.586;2022-07-06T12:58:53;4.53;;;0.60;;
47866;SDS011;33628;50.806;11.586;2022-07-06T13:01:21;3.83;;;0.70;;
47866;SDS011;33628;50.806;11.586;2022-07-06T13:03:48;4.30;;;0.73;;
47866;SDS011;33628;50.806;11.586;2022-07-06T13:06:26;3.28;;;0.50;;
47866;SDS011;33628;50.806;11.586;2022-07-06T13:08:54;4.10;;;0.68;;
47866;SDS011;33628;50.806;11.586;2022-07-06T13:11:21;3.58;;;0.50;;
47866;SDS011;33628;50.806;11.586;2022-07-06T13:13:48;3.08;;;0.85;;
47866;SDS011;33628;50.806;11.586;2022-07-06T13:16:14;3.15;;;0.68;;
47866;SDS011;33628;50.806;11.586;2022-07-06T13:18:40;3.25;;;0.63;;
47866;SDS011;33628;50.806;11.586;2022-07-06T13:21:06;1.98;;;0.55;;
47866;SDS011;33628;50.806;11.586;2022-07-06T13:23:32;2.13;;;0.70;;
47866;SDS011;33628;50.806;11.586;2022-07-06T13:25:58;2.03;;;1.02;;
47866;SDS011;33628;50.806;11.586;2022-07-06T13:28:26;3.15;;;0.70;;
47866;SDS011;33628;50.806;11.586;2022-07-06T13:30:52;4.75;;;0.70;;
47866;SDS011;33628;50.806;11.586;2022-07-06T13:33:18;3.17;;;0.60;;
47866;SDS011;33628;50.806;11.586;2022-07-06T13:35:44;2.50;;;0.70;;
47866;SDS011;33628;50.806;11.586;2022-07-06T13:38:11;4.78;;;0.60;;
47866;SDS011;33628;50.806;11.586;2022-07-06T13:40:37;3.13;;;0.70;;
47866;SDS011;33628;50.806;11.586;2022-07-06T13:43:03;4.47;;;1.15;;
47866;SDS011;33628;50.806;11.586;2022-07-06T13:45:31;4.30;;;0.98;;
47866;SDS011;33628;50.806;11.586;2022-07-06T13:47:57;2.17;;;0.63;;
47866;SDS011;33628;50.806;11.586;2022-07-06T13:50:23;2.90;;;0.68;;
47866;SDS011;33628;50.806;11.586;2022-07-06T13:52:51;4.25;;;0.80;;
47866;SDS011;33628;50.806;11.586;2022-07-06T13:59:23;5.70;;;0.90;;
47866;SDS011;33628;50.806;11.586;2022-07-06T14:01:50;5.68;;;0.65;;
47866;SDS011;33628;50.806;11.586;2022-07-06T14:04:17;3.53;;;0.60;;
47866;SDS011;33628;50.806;11.586;2022-07-06T14:06:43;3.28;;;0.85;;
47866;SDS011;33628;50.806;11.586;2022-07-06T14:09:09;3.78;;;0.55;;
47866;SDS011;33628;50.806;11.586;2022-07-06T14:11:35;3.38;;;0.50;;
47866;SDS011;33628;50.806;11.586;2022-07-06T14:14:01;1.75;;;0.52;;
47866;SDS011;33628;50.806;11.586;2022-07-06T14:16:28;2.75;;;0.85;;
47866;SDS011;33628;50.806;11.586;2022-07-06T14:18:55;2.13;;;0.70;;
47866;SDS011;33628;50.806;11.586;2022-07-06T14:21:22;1.70;;;0.70;;
47866;SDS011;33628;50.806;11.586;2022-07-06T14:23:48;4.63;;;0.85;;
47866;SDS011;33628;50.806;11.586;2022-07-06T14:26:14;2.75;;;0.70;;
47866;SDS011;33628;50.806;11.586;2022-07-06T14:28:40;3.60;;;0.50;;
47866;SDS011;33628;50.806;11.586;2022-07-06T14:31:06;4.85;;;0.70;;
47866;SDS011;33628;50.806;11.586;2022-07-06T14:33:32;6.07;;;0.60;;
47866;SDS011;33628;50.806;11.586;2022-07-06T14:36:00;6.00;;;0.80;;
47866;SDS011;33628;50.806;11.586;2022-07-06T14:38:26;2.35;;;0.60;;
47866;SDS011;33628;50.806;11.586;2022-07-06T14:40:53;5.57;;;0.70;;
47866;SDS011;33628;50.806;11.586;2022-07-06T14:43:19;1.92;;;0.57;;
47866;SDS011;33628;50.806;11.586;2022-07-06T14:45:45;4.15;;;0.65;;
47866;SDS011;33628;50.806;11.586;2022-07-06T14:48:12;6.10;;;0.88;;
47866;SDS011;33628;50.806;11.586;2022-07-06T14:50:38;3.42;;;0.68;;